sensor_id;sensor_type;location;lat;lon;timestamp;P1;durP1;ratioP1;P2;durP2;ratioP2
33485;SDS011;19824;52.098;5.004;2022-12-31T00:00:13;6.85;;;3.60;;
33485;SDS011;19824;52.098;5.004;2022-12-31T00:02:42;7.82;;;3.75;;
33485;SDS011;19824;52.098;5.004;2022-12-31T00:05:11;5.82;;;3.78;;
33485;SDS011;19824;52.098;5.004;2022-12-31T00:07:40;6.18;;;3.72;;
33485;SDS011;19824;52.098;5.004;2022-12-31T00:10:08;7.47;;;4.30;;
33485;SDS011;19824;52.098;5.004;2022-12-31T00:12:37;5.45;;;3.80;;
33485;SDS011;19824;52.098;5.004;2022-12-31T00:15:06;6.28;;;3.67;;
33485;SDS011;19824;52.098;5.004;2022-12-31T00:17:37;5.78;;;4.22;;
33485;SDS011;19824;52.098;5.004;2022-12-31T00:20:06;7.47;;;4.68;;
33485;SDS011;19824;52.098;5.004;2022-12-31T00:22:40;9.10;;;4.85;;
33485;SDS011;19824;52.098;5.004;2022-12-31T00:25:09;5.97;;;4.57;;
33485;SDS011;19824;52.098;5.004;2022-12-31T00:27:38;8.75;;;5.32;;
33485;SDS011;19824;52.098;5.004;2022-12-31T00:30:07;6.78;;;4.72;;
33485;SDS011;19824;52.098;5.004;2022-12-31T00:32:40;9.50;;;5.32;;
33485;SDS011;19824;52.098;5.004;2022-12-31T00:35:08;8.93;;;4.97;;
33485;SDS011;19824;52.098;5.004;2022-12-31T00:37:37;9.07;;;4.70;;
33485;SDS011;19824;52.098;5.004;2022-12-31T00:40:07;8.20;;;4.65;;
33485;SDS011;19824;52.098;5.004;2022-12-31T00:42:39;8.35;;;4.70;;
33485;SDS011;19824;52.098;5.004;2022-12-31T00:45:08;9.93;;;4.75;;
33485;SDS011;19824;52.098;5.004;2022-12-31T00:47:37;9.05;;;4.43;;
33485;SDS011;19824;52.098;5.004;2022-12-31T00:50:08;8.23;;;4.45;;
33485;SDS011;19824;52.098;5.004;2022-12-31T00:52:37;9.70;;;4.90;;
33485;SDS011;19824;52.098;5.004;2022-12-31T00:55:06;9.25;;;3.28;;
33485;SDS011;19824;52.098;5.004;2022-12-31T00:57:35;6.40;;;2.72;;
33485;SDS011;19824;52.098;5.004;2022-12-31T01:00:05;8.30;;;2.83;;
33485;SDS011;19824;52.098;5.004;2022-12-31T01:02:36;7.55;;;2.63;;
33485;SDS011;19824;52.098;5.004;2022-12-31T01:05:07;6.90;;;2.30;;
33485;SDS011;19824;52.098;5.004;2022-12-31T01:07:36;8.10;;;2.22;;
33485;SDS011;19824;52.098;5.004;2022-12-31T01:10:05;7.45;;;2.15;;
33485;SDS011;19824;52.098;5.004;2022-12-31T01:12:35;9.77;;;2.40;;
33485;SDS011;19824;52.098;5.004;2022-12-31T01:15:04;6.82;;;2.20;;
33485;SDS011;19824;52.098;5.004;2022-12-31T01:17:34;8.52;;;2.30;;
33485;SDS011;19824;52.098;5.004;2022-12-31T01:20:11;8.35;;;2.03;;
33485;SDS011;19824;52.098;5.004;2022-12-31T01:22:39;7.00;;;1.70;;
33485;SDS011;19824;52.098;5.004;2022-12-31T01:25:08;6.35;;;1.88;;
33485;SDS011;19824;52.098;5.004;2022-12-31T01:27:37;7.57;;;2.10;;
33485;SDS011;19824;52.098;5.004;2022-12-31T01:30:06;8.27;;;2.00;;
33485;SDS011;19824;52.098;5.004;2022-12-31T01:32:36;8.07;;;2.30;;
33485;SDS011;19824;52.098;5.004;2022-12-31T01:35:05;7.07;;;1.95;;
33485;SDS011;19824;52.098;5.004;2022-12-31T01:37:37;9.68;;;2.20;;
33485;SDS011;19824;52.098;5.004;2022-12-31T01:40:06;7.00;;;1.67;;
33485;SDS011;19824;52.098;5.004;2022-12-31T01:42:35;9.13;;;1.83;;
33485;SDS011;19824;52.098;5.004;2022-12-31T01:45:07;11.25;;;2.35;;
33485;SDS011;19824;52.098;5.004;2022-12-31T01:47:40;7.70;;;2.00;;
33485;SDS011;19824;52.098;5.004;2022-12-31T01:50:13;7.38;;;2.40;;
33485;SDS011;19824;52.098;5.004;2022-12-31T01:52:51;8.68;;;2.22;;
33485;SDS011;19824;52.098;5.004;2022-12-31T01:55:26;7.18;;;2.10;;
33485;SDS011;19824;52.098;5.004;2022-12-31T01:58:00;11.43;;;2.33;;
33485;SDS011;19824;52.098;5.004;2022-12-31T02:00:33;8.15;;;2.67;;
33485;SDS011;19824;52.098;5.004;2022-12-31T02:03:02;8.23;;;3.40;;
33485;SDS011;19824;52.098;5.004;2022-12-31T02:05:32;7.93;;;2.90;;
33485;SDS011;19824;52.098;5.004;2022-12-31T02:08:08;6.45;;;2.78;;
33485;SDS011;19824;52.098;5.004;2022-12-31T02:10:37;7.38;;;3.15;;
33485;SDS011;19824;52.098;5.004;2022-12-31T02:13:06;7.60;;;3.22;;
33485;SDS011;19824;52.098;5.004;2022-12-31T02:15:37;9.35;;;3.50;;
33485;SDS011;19824;52.098;5.004;2022-12-31T02:18:16;7.93;;;3.28;;
33485;SDS011;19824;52.098;5.004;2022-12-31T02:21:07;5.55;;;3.00;;
33485;SDS011;19824;52.098;5.004;2022-12-31T02:27:22;4.35;;;2.10;;
33485;SDS011;19824;52.098;5.004;2022-12-31T02:30:16;6.65;;;2.20;;
33485;SDS011;19824;52.098;5.004;2022-12-31T02:32:56;6.07;;;2.33;;
33485;SDS011;19824;52.098;5.004;2022-12-31T02:35:40;6.10;;;1.70;;
33485;SDS011;19824;52.098;5.004;2022-12-31T02:38:17;7.07;;;1.98;;
33485;SDS011;19824;52.098;5.004;2022-12-31T02:40:57;6.70;;;1.85;;
33485;SDS011;19824;52.098;5.004;2022-12-31T02:43:27;8.02;;;1.88;;
33485;SDS011;19824;52.098;5.004;2022-12-31T02:45:59;7.85;;;2.10;;
33485;SDS011;19824;52.098;5.004;2022-12-31T02:48:42;7.82;;;2.15;;
33485;SDS011;19824;52.098;5.004;2022-12-31T02:51:24;7.18;;;1.95;;
33485;SDS011;19824;52.098;5.004;2022-12-31T02:54:08;8.30;;;2.17;;
33485;SDS011;19824;52.098;5.004;2022-12-31T02:56:50;8.27;;;1.95;;
33485;SDS011;19824;52.098;5.004;2022-12-31T02:59:31;9.18;;;2.28;;
33485;SDS011;19824;52.098;5.004;2022-12-31T03:02:20;7.57;;;2.03;;
33485;SDS011;19824;52.098;5.004;2022-12-31T03:04:55;6.63;;;2.10;;
33485;SDS011;19824;52.098;5.004;2022-12-31T03:07:28;8.18;;;2.10;;
33485;SDS011;19824;52.098;5.004;2022-12-31T03:09:59;10.18;;;2.25;;
33485;SDS011;19824;52.098;5.004;2022-12-31T03:12:29;10.02;;;2.75;;
33485;SDS011;19824;52.098;5.004;2022-12-31T03:15:12;5.82;;;2.30;;
33485;SDS011;19824;52.098;5.004;2022-12-31T03:17:50;8.40;;;2.65;;
33485;SDS011;19824;52.098;5.004;2022-12-31T03:20:24;7.07;;;2.33;;
33485;SDS011;19824;52.098;5.004;2022-12-31T03:23:09;7.97;;;2.20;;
33485;SDS011;19824;52.098;5.004;2022-12-31T03:25:41;9.32;;;2.33;;
33485;SDS011;19824;52.098;5.004;2022-12-31T03:28:10;8.93;;;2.20;;
33485;SDS011;19824;52.098;5.004;2022-12-31T03:30:45;6.88;;;1.73;;
33485;SDS011;19824;52.098;5.004;2022-12-31T03:33:18;9.23;;;2.00;;
33485;SDS011;19824;52.098;5.004;2022-12-31T03:35:50;7.50;;;1.77;;
33485;SDS011;19824;52.098;5.004;2022-12-31T03:38:20;7.03;;;1.80;;
33485;SDS011;19824;52.098;5.004;2022-12-31T03:40:49;3.90;;;1.60;;
33485;SDS011;19824;52.098;5.004;2022-12-31T03:43:20;10.50;;;1.92;;
33485;SDS011;19824;52.098;5.004;2022-12-31T03:45:49;9.13;;;2.08;;
33485;SDS011;19824;52.098;5.004;2022-12-31T03:48:21;6.43;;;1.50;;
33485;SDS011;19824;52.098;5.004;2022-12-31T03:50:50;10.07;;;1.90;;
33485;SDS011;19824;52.098;5.004;2022-12-31T03:53:19;7.00;;;1.90;;
33485;SDS011;19824;52.098;5.004;2022-12-31T03:55:49;7.22;;;1.63;;
33485;SDS011;19824;52.098;5.004;2022-12-31T03:58:18;10.75;;;2.10;;
33485;SDS011;19824;52.098;5.004;2022-12-31T04:00:48;7.63;;;1.80;;
33485;SDS011;19824;52.098;5.004;2022-12-31T04:03:17;5.03;;;1.70;;
33485;SDS011;19824;52.098;5.004;2022-12-31T04:05:52;5.53;;;1.90;;
33485;SDS011;19824;52.098;5.004;2022-12-31T04:08:21;6.93;;;1.70;;
33485;SDS011;19824;52.098;5.004;2022-12-31T04:10:50;5.43;;;1.60;;
33485;SDS011;19824;52.098;5.004;2022-12-31T04:13:19;6.15;;;1.52;;
33485;SDS011;19824;52.098;5.004;2022-12-31T04:15:48;10.63;;;1.83;;
33485;SDS011;19824;52.098;5.004;2022-12-31T04:18:17;7.05;;;1.90;;
33485;SDS011;19824;52.098;5.004;2022-12-31T04:20:46;8.27;;;2.33;;
33485;SDS011;19824;52.098;5.004;2022-12-31T04:23:17;10.10;;;2.38;;
33485;SDS011;19824;52.098;5.004;2022-12-31T04:25:45;10.55;;;3.00;;
33485;SDS011;19824;52.098;5.004;2022-12-31T04:28:14;9.98;;;2.75;;
33485;SDS011;19824;52.098;5.004;2022-12-31T04:30:45;9.02;;;2.72;;
33485;SDS011;19824;52.098;5.004;2022-12-31T04:33:14;7.57;;;2.55;;
33485;SDS011;19824;52.098;5.004;2022-12-31T04:35:42;6.68;;;2.65;;
33485;SDS011;19824;52.098;5.004;2022-12-31T04:38:11;8.38;;;2.50;;
33485;SDS011;19824;52.098;5.004;2022-12-31T04:40:41;6.47;;;2.67;;
33485;SDS011;19824;52.098;5.004;2022-12-31T04:43:25;6.75;;;2.17;;
33485;SDS011;19824;52.098;5.004;2022-12-31T04:45:53;6.95;;;2.45;;
33485;SDS011;19824;52.098;5.004;2022-12-31T04:48:22;8.30;;;2.67;;
33485;SDS011;19824;52.098;5.004;2022-12-31T04:50:51;8.02;;;3.05;;
33485;SDS011;19824;52.098;5.004;2022-12-31T04:53:19;10.13;;;3.28;;
33485;SDS011;19824;52.098;5.004;2022-12-31T04:55:51;6.07;;;3.28;;
33485;SDS011;19824;52.098;5.004;2022-12-31T04:58:25;8.65;;;4.32;;
33485;SDS011;19824;52.098;5.004;2022-12-31T05:00:54;11.23;;;4.97;;
33485;SDS011;19824;52.098;5.004;2022-12-31T05:03:23;12.20;;;5.72;;
33485;SDS011;19824;52.098;5.004;2022-12-31T05:05:53;13.05;;;6.00;;
33485;SDS011;19824;52.098;5.004;2022-12-31T05:08:28;14.20;;;7.38;;
33485;SDS011;19824;52.098;5.004;2022-12-31T05:10:59;14.60;;;7.70;;
33485;SDS011;19824;52.098;5.004;2022-12-31T05:13:28;18.25;;;9.30;;
33485;SDS011;19824;52.098;5.004;2022-12-31T05:15:59;23.92;;;10.02;;
33485;SDS011;19824;52.098;5.004;2022-12-31T05:18:28;17.05;;;8.90;;
33485;SDS011;19824;52.098;5.004;2022-12-31T05:20:57;18.73;;;9.90;;
33485;SDS011;19824;52.098;5.004;2022-12-31T05:23:26;17.38;;;9.05;;
33485;SDS011;19824;52.098;5.004;2022-12-31T05:25:55;15.18;;;8.90;;
33485;SDS011;19824;52.098;5.004;2022-12-31T05:28:26;15.85;;;8.63;;
33485;SDS011;19824;52.098;5.004;2022-12-31T05:30:57;14.27;;;8.20;;
33485;SDS011;19824;52.098;5.004;2022-12-31T05:33:26;16.42;;;9.20;;
33485;SDS011;19824;52.098;5.004;2022-12-31T05:35:54;15.55;;;8.68;;
33485;SDS011;19824;52.098;5.004;2022-12-31T05:38:24;13.18;;;8.23;;
33485;SDS011;19824;52.098;5.004;2022-12-31T05:41:03;12.95;;;8.18;;
33485;SDS011;19824;52.098;5.004;2022-12-31T05:43:36;10.75;;;7.30;;
33485;SDS011;19824;52.098;5.004;2022-12-31T05:46:05;10.30;;;6.65;;
33485;SDS011;19824;52.098;5.004;2022-12-31T05:48:33;10.60;;;7.07;;
33485;SDS011;19824;52.098;5.004;2022-12-31T05:51:02;9.40;;;5.90;;
33485;SDS011;19824;52.098;5.004;2022-12-31T05:53:31;8.13;;;5.53;;
33485;SDS011;19824;52.098;5.004;2022-12-31T05:56:00;8.05;;;5.38;;
33485;SDS011;19824;52.098;5.004;2022-12-31T05:58:29;6.40;;;4.70;;
33485;SDS011;19824;52.098;5.004;2022-12-31T06:00:59;6.20;;;4.40;;
33485;SDS011;19824;52.098;5.004;2022-12-31T06:03:28;6.88;;;3.83;;
33485;SDS011;19824;52.098;5.004;2022-12-31T06:05:57;7.07;;;3.60;;
33485;SDS011;19824;52.098;5.004;2022-12-31T06:08:28;4.75;;;3.60;;
33485;SDS011;19824;52.098;5.004;2022-12-31T06:10:57;4.88;;;3.67;;
33485;SDS011;19824;52.098;5.004;2022-12-31T06:13:25;4.65;;;3.60;;
33485;SDS011;19824;52.098;5.004;2022-12-31T06:15:54;4.43;;;3.35;;
33485;SDS011;19824;52.098;5.004;2022-12-31T06:18:25;4.57;;;3.65;;
33485;SDS011;19824;52.098;5.004;2022-12-31T06:20:56;5.72;;;4.10;;
33485;SDS011;19824;52.098;5.004;2022-12-31T06:23:25;6.07;;;4.15;;
33485;SDS011;19824;52.098;5.004;2022-12-31T06:25:54;6.38;;;4.68;;
33485;SDS011;19824;52.098;5.004;2022-12-31T06:28:22;6.85;;;4.28;;
33485;SDS011;19824;52.098;5.004;2022-12-31T06:30:57;6.78;;;4.30;;
33485;SDS011;19824;52.098;5.004;2022-12-31T06:33:28;7.03;;;4.88;;
33485;SDS011;19824;52.098;5.004;2022-12-31T06:35:58;8.95;;;6.07;;
33485;SDS011;19824;52.098;5.004;2022-12-31T06:38:29;8.10;;;5.63;;
33485;SDS011;19824;52.098;5.004;2022-12-31T06:41:01;8.98;;;6.30;;
33485;SDS011;19824;52.098;5.004;2022-12-31T06:43:30;10.80;;;6.75;;
33485;SDS011;19824;52.098;5.004;2022-12-31T06:45:59;8.38;;;6.22;;
33485;SDS011;19824;52.098;5.004;2022-12-31T06:48:30;8.63;;;6.20;;
33485;SDS011;19824;52.098;5.004;2022-12-31T06:51:01;7.00;;;5.23;;
33485;SDS011;19824;52.098;5.004;2022-12-31T06:53:31;7.95;;;5.10;;
33485;SDS011;19824;52.098;5.004;2022-12-31T06:56:03;6.88;;;4.72;;
33485;SDS011;19824;52.098;5.004;2022-12-31T06:58:34;5.47;;;3.90;;
33485;SDS011;19824;52.098;5.004;2022-12-31T07:01:07;4.47;;;3.40;;
33485;SDS011;19824;52.098;5.004;2022-12-31T07:03:58;3.75;;;2.72;;
33485;SDS011;19824;52.098;5.004;2022-12-31T07:06:47;2.35;;;1.70;;
33485;SDS011;19824;52.098;5.004;2022-12-31T07:09:24;3.28;;;1.45;;
33485;SDS011;19824;52.098;5.004;2022-12-31T07:12:02;2.58;;;1.40;;
33485;SDS011;19824;52.098;5.004;2022-12-31T07:14:39;2.30;;;1.33;;
33485;SDS011;19824;52.098;5.004;2022-12-31T07:17:15;3.67;;;1.65;;
33485;SDS011;19824;52.098;5.004;2022-12-31T07:19:57;2.45;;;1.38;;
33485;SDS011;19824;52.098;5.004;2022-12-31T07:22:32;1.38;;;1.00;;
33485;SDS011;19824;52.098;5.004;2022-12-31T07:25:02;2.65;;;1.15;;
33485;SDS011;19824;52.098;5.004;2022-12-31T07:27:36;1.33;;;0.88;;
33485;SDS011;19824;52.098;5.004;2022-12-31T07:30:23;1.98;;;0.60;;
33485;SDS011;19824;52.098;5.004;2022-12-31T07:33:06;2.10;;;0.82;;
33485;SDS011;19824;52.098;5.004;2022-12-31T07:36:03;1.65;;;0.70;;
33485;SDS011;19824;52.098;5.004;2022-12-31T07:38:47;0.93;;;0.60;;
33485;SDS011;19824;52.098;5.004;2022-12-31T07:41:22;2.47;;;0.80;;
33485;SDS011;19824;52.098;5.004;2022-12-31T07:44:22;1.70;;;0.70;;
33485;SDS011;19824;52.098;5.004;2022-12-31T07:47:02;2.00;;;1.20;;
33485;SDS011;19824;52.098;5.004;2022-12-31T07:49:38;2.70;;;1.02;;
33485;SDS011;19824;52.098;5.004;2022-12-31T07:52:12;2.22;;;1.20;;
33485;SDS011;19824;52.098;5.004;2022-12-31T07:54:42;2.70;;;1.35;;
33485;SDS011;19824;52.098;5.004;2022-12-31T07:57:11;3.30;;;1.60;;
33485;SDS011;19824;52.098;5.004;2022-12-31T07:59:51;2.42;;;1.58;;
33485;SDS011;19824;52.098;5.004;2022-12-31T08:02:40;2.05;;;1.48;;
33485;SDS011;19824;52.098;5.004;2022-12-31T08:05:37;4.00;;;1.42;;
33485;SDS011;19824;52.098;5.004;2022-12-31T08:08:21;2.88;;;1.17;;
33485;SDS011;19824;52.098;5.004;2022-12-31T08:11:05;2.95;;;1.40;;
33485;SDS011;19824;52.098;5.004;2022-12-31T08:13:41;2.85;;;1.30;;
33485;SDS011;19824;52.098;5.004;2022-12-31T08:16:11;2.28;;;1.10;;
33485;SDS011;19824;52.098;5.004;2022-12-31T08:18:41;2.13;;;1.00;;
33485;SDS011;19824;52.098;5.004;2022-12-31T08:21:13;2.53;;;1.20;;
33485;SDS011;19824;52.098;5.004;2022-12-31T08:24:02;4.03;;;1.40;;
33485;SDS011;19824;52.098;5.004;2022-12-31T08:26:42;3.90;;;1.08;;
33485;SDS011;19824;52.098;5.004;2022-12-31T08:29:25;4.90;;;1.00;;
33485;SDS011;19824;52.098;5.004;2022-12-31T08:32:04;1.73;;;0.95;;
33485;SDS011;19824;52.098;5.004;2022-12-31T08:34:41;4.00;;;1.40;;
33485;SDS011;19824;52.098;5.004;2022-12-31T08:37:19;4.72;;;1.30;;
33485;SDS011;19824;52.098;5.004;2022-12-31T08:40:04;3.75;;;1.10;;
33485;SDS011;19824;52.098;5.004;2022-12-31T08:42:50;3.95;;;0.70;;
33485;SDS011;19824;52.098;5.004;2022-12-31T08:45:45;3.08;;;0.70;;
33485;SDS011;19824;52.098;5.004;2022-12-31T08:48:18;2.75;;;0.88;;
33485;SDS011;19824;52.098;5.004;2022-12-31T08:50:57;4.18;;;1.17;;
33485;SDS011;19824;52.098;5.004;2022-12-31T08:53:26;4.88;;;2.45;;
33485;SDS011;19824;52.098;5.004;2022-12-31T08:55:59;6.20;;;2.55;;
33485;SDS011;19824;52.098;5.004;2022-12-31T08:58:37;4.35;;;1.00;;
33485;SDS011;19824;52.098;5.004;2022-12-31T09:01:17;4.97;;;1.15;;
33485;SDS011;19824;52.098;5.004;2022-12-31T09:04:04;4.15;;;1.20;;
33485;SDS011;19824;52.098;5.004;2022-12-31T09:06:47;8.90;;;2.10;;
33485;SDS011;19824;52.098;5.004;2022-12-31T09:09:26;8.02;;;1.80;;
33485;SDS011;19824;52.098;5.004;2022-12-31T09:12:12;5.93;;;2.10;;
33485;SDS011;19824;52.098;5.004;2022-12-31T09:14:50;5.90;;;1.98;;
33485;SDS011;19824;52.098;5.004;2022-12-31T09:17:31;7.88;;;2.50;;
33485;SDS011;19824;52.098;5.004;2022-12-31T09:20:14;4.65;;;2.00;;
33485;SDS011;19824;52.098;5.004;2022-12-31T09:22:49;8.65;;;2.42;;
33485;SDS011;19824;52.098;5.004;2022-12-31T09:25:20;5.82;;;2.28;;
33485;SDS011;19824;52.098;5.004;2022-12-31T09:30:33;4.53;;;1.40;;
33485;SDS011;19824;52.098;5.004;2022-12-31T09:33:14;6.88;;;1.50;;
33485;SDS011;19824;52.098;5.004;2022-12-31T09:35:58;3.38;;;1.48;;
33485;SDS011;19824;52.098;5.004;2022-12-31T09:38:34;9.68;;;4.50;;
33485;SDS011;19824;52.098;5.004;2022-12-31T09:41:11;5.50;;;2.17;;
33485;SDS011;19824;52.098;5.004;2022-12-31T09:43:50;4.07;;;1.50;;
33485;SDS011;19824;52.098;5.004;2022-12-31T09:50:30;3.30;;;1.67;;
33485;SDS011;19824;52.098;5.004;2022-12-31T09:53:24;5.78;;;1.70;;
33485;SDS011;19824;52.098;5.004;2022-12-31T09:56:22;3.58;;;1.25;;
33485;SDS011;19824;52.098;5.004;2022-12-31T09:58:59;4.25;;;1.52;;
33485;SDS011;19824;52.098;5.004;2022-12-31T10:01:44;8.95;;;2.03;;
33485;SDS011;19824;52.098;5.004;2022-12-31T10:04:27;4.75;;;1.40;;
33485;SDS011;19824;52.098;5.004;2022-12-31T10:07:13;6.50;;;1.95;;
33485;SDS011;19824;52.098;5.004;2022-12-31T10:10:05;5.40;;;2.35;;
33485;SDS011;19824;52.098;5.004;2022-12-31T10:12:45;3.85;;;1.90;;
33485;SDS011;19824;52.098;5.004;2022-12-31T10:21:46;4.57;;;1.80;;
33485;SDS011;19824;52.098;5.004;2022-12-31T10:24:33;3.65;;;1.58;;
33485;SDS011;19824;52.098;5.004;2022-12-31T10:27:24;4.35;;;2.08;;
33485;SDS011;19824;52.098;5.004;2022-12-31T10:30:11;4.50;;;2.30;;
33485;SDS011;19824;52.098;5.004;2022-12-31T10:32:49;5.38;;;2.45;;
33485;SDS011;19824;52.098;5.004;2022-12-31T10:35:37;6.25;;;2.80;;
33485;SDS011;19824;52.098;5.004;2022-12-31T10:38:13;8.32;;;3.17;;
33485;SDS011;19824;52.098;5.004;2022-12-31T10:41:10;4.88;;;3.15;;
33485;SDS011;19824;52.098;5.004;2022-12-31T10:44:36;6.93;;;3.08;;
33485;SDS011;19824;52.098;5.004;2022-12-31T10:47:44;8.63;;;3.20;;
33485;SDS011;19824;52.098;5.004;2022-12-31T10:51:11;7.82;;;3.63;;
33485;SDS011;19824;52.098;5.004;2022-12-31T10:57:09;6.65;;;2.80;;
33485;SDS011;19824;52.098;5.004;2022-12-31T11:00:17;5.68;;;3.00;;
33485;SDS011;19824;52.098;5.004;2022-12-31T11:02:53;2.92;;;1.95;;
33485;SDS011;19824;52.098;5.004;2022-12-31T11:06:21;4.35;;;2.33;;
33485;SDS011;19824;52.098;5.004;2022-12-31T11:12:58;4.57;;;2.50;;
33485;SDS011;19824;52.098;5.004;2022-12-31T11:16:12;22.80;;;17.83;;
33485;SDS011;19824;52.098;5.004;2022-12-31T11:18:56;6.55;;;2.65;;
33485;SDS011;19824;52.098;5.004;2022-12-31T11:21:37;6.53;;;2.58;;
33485;SDS011;19824;52.098;5.004;2022-12-31T11:24:22;7.28;;;2.60;;
33485;SDS011;19824;52.098;5.004;2022-12-31T11:27:09;5.15;;;2.40;;
33485;SDS011;19824;52.098;5.004;2022-12-31T11:29:54;6.10;;;2.40;;
33485;SDS011;19824;52.098;5.004;2022-12-31T11:32:40;5.05;;;2.40;;
33485;SDS011;19824;52.098;5.004;2022-12-31T11:35:25;4.35;;;1.88;;
33485;SDS011;19824;52.098;5.004;2022-12-31T11:38:08;3.10;;;1.77;;
33485;SDS011;19824;52.098;5.004;2022-12-31T11:40:50;4.55;;;2.50;;
33485;SDS011;19824;52.098;5.004;2022-12-31T11:43:29;5.90;;;2.40;;
33485;SDS011;19824;52.098;5.004;2022-12-31T11:49:18;5.13;;;2.17;;
33485;SDS011;19824;52.098;5.004;2022-12-31T11:52:16;6.78;;;3.40;;
33485;SDS011;19824;52.098;5.004;2022-12-31T11:58:10;7.22;;;2.97;;
33485;SDS011;19824;52.098;5.004;2022-12-31T12:00:43;7.57;;;3.13;;
33485;SDS011;19824;52.098;5.004;2022-12-31T12:03:22;6.32;;;2.53;;
33485;SDS011;19824;52.098;5.004;2022-12-31T12:05:51;9.32;;;2.60;;
33485;SDS011;19824;52.098;5.004;2022-12-31T12:08:22;10.50;;;2.60;;
33485;SDS011;19824;52.098;5.004;2022-12-31T12:10:55;7.10;;;2.50;;
33485;SDS011;19824;52.098;5.004;2022-12-31T12:13:33;6.13;;;2.53;;
33485;SDS011;19824;52.098;5.004;2022-12-31T12:16:02;6.72;;;2.65;;
33485;SDS011;19824;52.098;5.004;2022-12-31T12:18:35;7.10;;;2.63;;
33485;SDS011;19824;52.098;5.004;2022-12-31T12:21:10;9.25;;;2.53;;
33485;SDS011;19824;52.098;5.004;2022-12-31T12:26:27;6.40;;;2.40;;
33485;SDS011;19824;52.098;5.004;2022-12-31T12:29:07;7.20;;;2.40;;
33485;SDS011;19824;52.098;5.004;2022-12-31T12:31:37;6.78;;;3.33;;
33485;SDS011;19824;52.098;5.004;2022-12-31T12:34:20;9.32;;;4.32;;
33485;SDS011;19824;52.098;5.004;2022-12-31T12:36:51;8.45;;;3.70;;
33485;SDS011;19824;52.098;5.004;2022-12-31T12:39:21;8.95;;;3.10;;
33485;SDS011;19824;52.098;5.004;2022-12-31T12:42:00;11.70;;;2.80;;
33485;SDS011;19824;52.098;5.004;2022-12-31T12:44:31;8.98;;;3.75;;
33485;SDS011;19824;52.098;5.004;2022-12-31T12:47:00;6.22;;;2.55;;
33485;SDS011;19824;52.098;5.004;2022-12-31T12:49:36;7.03;;;2.97;;
33485;SDS011;19824;52.098;5.004;2022-12-31T12:55:32;6.13;;;2.67;;
33485;SDS011;19824;52.098;5.004;2022-12-31T12:58:17;9.07;;;3.50;;
33485;SDS011;19824;52.098;5.004;2022-12-31T13:01:02;11.90;;;3.30;;
33485;SDS011;19824;52.098;5.004;2022-12-31T13:03:54;9.70;;;4.38;;
33485;SDS011;19824;52.098;5.004;2022-12-31T13:07:09;10.57;;;5.20;;
33485;SDS011;19824;52.098;5.004;2022-12-31T13:09:58;7.63;;;2.70;;
33485;SDS011;19824;52.098;5.004;2022-12-31T13:12:43;9.27;;;3.25;;
33485;SDS011;19824;52.098;5.004;2022-12-31T13:15:47;21.50;;;15.43;;
33485;SDS011;19824;52.098;5.004;2022-12-31T13:18:27;10.52;;;3.85;;
33485;SDS011;19824;52.098;5.004;2022-12-31T13:21:18;6.30;;;2.40;;
33485;SDS011;19824;52.098;5.004;2022-12-31T13:24:12;9.93;;;2.70;;
33485;SDS011;19824;52.098;5.004;2022-12-31T13:26:55;8.75;;;2.55;;
33485;SDS011;19824;52.098;5.004;2022-12-31T13:29:31;8.40;;;2.55;;
33485;SDS011;19824;52.098;5.004;2022-12-31T13:32:04;9.30;;;2.35;;
33485;SDS011;19824;52.098;5.004;2022-12-31T13:34:37;7.60;;;2.30;;
33485;SDS011;19824;52.098;5.004;2022-12-31T13:37:14;7.22;;;2.70;;
33485;SDS011;19824;52.098;5.004;2022-12-31T13:39:55;6.50;;;2.40;;
33485;SDS011;19824;52.098;5.004;2022-12-31T13:42:33;7.55;;;2.40;;
33485;SDS011;19824;52.098;5.004;2022-12-31T13:45:09;8.13;;;2.80;;
33485;SDS011;19824;52.098;5.004;2022-12-31T13:47:45;8.30;;;2.55;;
33485;SDS011;19824;52.098;5.004;2022-12-31T13:50:21;7.50;;;2.78;;
33485;SDS011;19824;52.098;5.004;2022-12-31T13:52:56;8.82;;;3.30;;
33485;SDS011;19824;52.098;5.004;2022-12-31T13:55:35;8.02;;;2.60;;
33485;SDS011;19824;52.098;5.004;2022-12-31T13:58:10;8.45;;;3.25;;
33485;SDS011;19824;52.098;5.004;2022-12-31T14:00:51;6.88;;;2.70;;
33485;SDS011;19824;52.098;5.004;2022-12-31T14:03:33;9.55;;;3.05;;
33485;SDS011;19824;52.098;5.004;2022-12-31T14:06:15;8.95;;;3.50;;
33485;SDS011;19824;52.098;5.004;2022-12-31T14:08:52;12.15;;;6.32;;
33485;SDS011;19824;52.098;5.004;2022-12-31T14:11:23;9.10;;;4.55;;
33485;SDS011;19824;52.098;5.004;2022-12-31T14:14:14;9.57;;;3.35;;
33485;SDS011;19824;52.098;5.004;2022-12-31T14:16:56;6.05;;;3.38;;
33485;SDS011;19824;52.098;5.004;2022-12-31T14:19:37;8.82;;;3.30;;
33485;SDS011;19824;52.098;5.004;2022-12-31T14:22:22;9.45;;;2.67;;
33485;SDS011;19824;52.098;5.004;2022-12-31T14:25:01;9.88;;;3.55;;
33485;SDS011;19824;52.098;5.004;2022-12-31T14:27:35;8.93;;;2.78;;
33485;SDS011;19824;52.098;5.004;2022-12-31T14:30:12;8.10;;;2.88;;
33485;SDS011;19824;52.098;5.004;2022-12-31T14:36:00;8.18;;;3.72;;
33485;SDS011;19824;52.098;5.004;2022-12-31T14:38:50;7.47;;;2.90;;
33485;SDS011;19824;52.098;5.004;2022-12-31T14:41:41;8.82;;;3.03;;
33485;SDS011;19824;52.098;5.004;2022-12-31T14:44:23;8.38;;;3.38;;
33485;SDS011;19824;52.098;5.004;2022-12-31T14:47:10;9.38;;;5.68;;
33485;SDS011;19824;52.098;5.004;2022-12-31T14:50:03;12.05;;;4.40;;
33485;SDS011;19824;52.098;5.004;2022-12-31T14:52:49;18.13;;;9.40;;
33485;SDS011;19824;52.098;5.004;2022-12-31T14:57:53;8.43;;;3.40;;
33485;SDS011;19824;52.098;5.004;2022-12-31T15:00:50;13.00;;;4.35;;
33485;SDS011;19824;52.098;5.004;2022-12-31T15:03:22;9.95;;;3.20;;
33485;SDS011;19824;52.098;5.004;2022-12-31T15:06:00;12.77;;;6.47;;
33485;SDS011;19824;52.098;5.004;2022-12-31T15:08:48;16.33;;;10.05;;
33485;SDS011;19824;52.098;5.004;2022-12-31T15:11:36;10.70;;;7.37;;
33485;SDS011;19824;52.098;5.004;2022-12-31T15:14:32;18.92;;;9.65;;
33485;SDS011;19824;52.098;5.004;2022-12-31T16:01:42;16.20;;;5.45;;
33485;SDS011;19824;52.098;5.004;2022-12-31T16:04:17;13.88;;;5.13;;
33485;SDS011;19824;52.098;5.004;2022-12-31T16:07:05;22.40;;;9.38;;
33485;SDS011;19824;52.098;5.004;2022-12-31T16:09:46;14.90;;;5.82;;
33485;SDS011;19824;52.098;5.004;2022-12-31T16:12:44;15.40;;;5.32;;
33485;SDS011;19824;52.098;5.004;2022-12-31T16:15:17;16.88;;;6.57;;
33485;SDS011;19824;52.098;5.004;2022-12-31T16:18:00;17.80;;;6.60;;
33485;SDS011;19824;52.098;5.004;2022-12-31T16:20:31;14.35;;;5.72;;
33485;SDS011;19824;52.098;5.004;2022-12-31T16:23:10;15.02;;;5.75;;
33485;SDS011;19824;52.098;5.004;2022-12-31T16:25:48;14.32;;;5.32;;
33485;SDS011;19824;52.098;5.004;2022-12-31T16:28:23;16.20;;;5.38;;
33485;SDS011;19824;52.098;5.004;2022-12-31T16:30:58;16.15;;;4.75;;
33485;SDS011;19824;52.098;5.004;2022-12-31T16:36:00;20.67;;;13.85;;
33485;SDS011;19824;52.098;5.004;2022-12-31T16:38:50;24.42;;;13.55;;
33485;SDS011;19824;52.098;5.004;2022-12-31T16:41:49;23.35;;;14.90;;
33485;SDS011;19824;52.098;5.004;2022-12-31T16:44:25;18.20;;;8.50;;
33485;SDS011;19824;52.098;5.004;2022-12-31T16:46:57;62.40;;;43.05;;
33485;SDS011;19824;52.098;5.004;2022-12-31T16:49:29;19.35;;;8.95;;
33485;SDS011;19824;52.098;5.004;2022-12-31T16:52:03;17.67;;;7.40;;
33485;SDS011;19824;52.098;5.004;2022-12-31T16:54:35;17.05;;;7.20;;
33485;SDS011;19824;52.098;5.004;2022-12-31T16:57:07;17.63;;;6.15;;
33485;SDS011;19824;52.098;5.004;2022-12-31T16:59:47;13.23;;;5.82;;
33485;SDS011;19824;52.098;5.004;2022-12-31T17:02:22;17.05;;;6.43;;
33485;SDS011;19824;52.098;5.004;2022-12-31T17:04:54;13.73;;;5.75;;
33485;SDS011;19824;52.098;5.004;2022-12-31T17:07:25;13.82;;;5.80;;
33485;SDS011;19824;52.098;5.004;2022-12-31T17:10:14;12.57;;;6.30;;
33485;SDS011;19824;52.098;5.004;2022-12-31T17:12:52;17.20;;;6.18;;